AirNav   SIMCOM
 
 957 users online  

WI54 Northwood Airstrip
Wonewoc, Wisconsin, USA


FAA INFORMATION EFFECTIVE 09 NOVEMBER 2017

Location

FAA Identifier: WI54
Lat/Long: 43-33-47.0000N / 090-17-06.0000W
43-33.783333N / 090-17.100000W
43.5630556 / -90.2850000
(estimated)
Elevation: 1275 ft. / 389 m
From city: 6 miles SSW of WONEWOC, WI
Time zone: UTC -6 (UTC -5 during Daylight Saving Time)
Zip code: 53924

Airport Operations

Airport use: Private use. Permission required prior to landing
Activation date: 06/2017
Control tower: no
ARTCC: CHICAGO CENTER
FSS: GREEN BAY FLIGHT SERVICE STATION
Attendance: 
Segmented circle: no

Airport Communications

WX AWOS-3PT at C35 (13 nm E): 118.95 (608-768-0023)
WX AWOS-3 at 82C (18 nm N): 123.925 (608-562-6153)

Nearby radio navigation aids

VOR radial/distance  VOR name  Freq  Var
LNRr338/17.4LONE ROCK VOR/DME112.8000E
DLLr269/22.7DELLS VORTAC117.0003E

 
NDB name  Hdg/Dist  Freq  Var  ID
MCCOY145/27.341200ECMY -.-. -- -.--

Airport Services

Runway Information

Runway 18/36

Dimensions: 1300 x 50 ft. / 396 x 15 m
Surface: turf
RUNWAY 18  RUNWAY 36
Traffic pattern: leftleft

Airport Ownership and Management from official FAA records

Ownership: Privately-owned
Owner: RICHARD THOMPSON
W10341 LUMSDEN RD
ELROY, WI 53929
Phone 608-572-5505
Manager: RICHARD THOMPSON
W10341 LUMSDEN RD
ELROY, WI 53929
Phone 608-572-5505

Instrument Procedures

There are no published instrument procedures at WI54.

Some nearby airports with instrument procedures:

C35 - Reedsburg Municipal Airport (13 nm E)
93C - Richland Airport (17 nm S)
82C - Mauston-New Lisbon Union Airport (18 nm N)
KLNR - Tri-County Regional Airport (22 nm S)
KDLL - Baraboo-Wisconsin Dells Regional Airport (22 nm E)
 
Loc | Ops | Rwys | IFR | FBO | Links
Com | Nav | Svcs | Stats | Notes


 
Aerial photo
No photo
 
Airport distance calculator
Flying to Northwood Airstrip? Find the distance to fly.

From to WI54

Sunrise and sunset
Times for 20-Nov-2017
 Local
(UTC-6)
 Zulu
(UTC)
Morning civil twilight06:3112:31
Sunrise07:0213:02
Sunset16:3122:31
Evening civil twilight17:0223:02

Current date and time
Zulu (UTC)  21-Nov-2017 01:01:43
Local (UTC-6)  20-Nov-2017 19:01:43
 
METAR
KC35 
13nm E 
210055Z AUTO 20015G21KT 10SM CLR 10/00 A2954 RMK AO2 T00981005
K82C 
18nm N 
210055Z AUTO 20008G16KT 10SM CLR 10/00 A2950 RMK AO2 T01040000
KVOK 
21nm N 
210056Z 21012G18KT 10SM BKN180 OVC250 09/M01 A2951 RMK AO2A SLPNO
KLNR 
21nm S 
210056Z AUTO 22008G16KT 10SM CLR 11/M01 A2959 RMK AO2 SLP019 T01111006
KDLL 
22nm E 
210055Z AUTO 21013G18KT 10SM CLR 10/M02 A2955 RMK AO2 T00981016
KY51 
27nm W 
210055Z AUTO 21014G17KT 10SM CLR 09/01 A2954 RMK AO1 T00920005
TAF
KVOK 
21nm N 
201700Z 2017/2123 17010KT 9999 BKN250 QNH2961INS BECMG 2020/2021 20009KT 9999 FEW100 BKN250 WS020/24045KT QNH2951INS BECMG 2112/2113 29012KT 9999 SCT030 BKN110 QNH2961INS BECMG 2114/2115 30020G30KT 9999 BKN030 610303 510003 QNH2972INS TEMPO 2116/2120 32025G35KT BECMG 2120/2121 32020G25KT 9999 BKN029 QNH2990INS BECMG 2122/2123 32012KT 9999 SCT022 QNH2993INS TX08/2021Z TNM01/2115Z
NOTAMs
Click for the latest NOTAMs
NOTAMs are issued by the DoD/FAA and will open in a separate window not controlled by AirNav.

 

 
 

Would you like to see your business listed on this page?

 If your business provides an interesting product or service to pilots, flight crews, aircraft, or users of the Northwood Airstrip, you should consider listing it here.  To start the listing process, click on the button below
 
Add a business
 

Other Pages about Northwood Airstrip

Update a link
 
Copyright © AirNav, LLC. All rights reserved. Privacy Policy  Contact